Time;durP1;ratioP1;P1;durP2;ratioP2;P2;SDS_P1;SDS_P2;PMS_P1;PMS_P2;Temp;Humidity;BMP_temperature;BMP_pressure;BME280_temperature;BME280_humidity;BME280_pressure;Samples;Min_cycle;Max_cycle;Signal;HPM_P1;HPM_P2
2023/08/15 00:00:43;;;;;;;3.55;1.27;;;;;;;;;;5004492;28;20069;-81
2023/08/15 00:03:10;;;;;;;4.00;1.45;;;;;;;;;;4993251;28;20878;-81
2023/08/15 00:05:40;;;;;;;1.98;1.30;;;;;;;;;;5007490;28;20409;-82
2023/08/15 00:08:07;;;;;;;3.13;1.40;;;;;;;;;;4994725;28;20058;-80
2023/08/15 00:10:33;;;;;;;2.30;1.30;;;;;;;;;;5015361;28;20042;-81
2023/08/15 00:13:00;;;;;;;3.40;1.88;;;;;;;;;;4997716;28;20045;-83
2023/08/15 00:15:27;;;;;;;2.08;1.35;;;;;;;;;;4998792;28;20176;-81
2023/08/15 00:17:54;;;;;;;2.63;1.42;;;;;;;;;;5002375;28;20061;-80
2023/08/15 00:20:21;;;;;;;2.33;1.52;;;;;;;;;;4997705;28;20046;-81
2023/08/15 00:22:47;;;;;;;1.75;1.30;;;;;;;;;;5008135;28;20471;-79
2023/08/15 00:25:14;;;;;;;2.30;1.15;;;;;;;;;;4993859;28;20041;-81
2023/08/15 00:27:41;;;;;;;3.28;1.33;;;;;;;;;;5013318;28;20155;-81
2023/08/15 00:30:09;;;;;;;3.97;1.63;;;;;;;;;;5002156;28;20177;-81
2023/08/15 00:32:35;;;;;;;2.72;1.52;;;;;;;;;;5024528;28;20061;-81
2023/08/15 00:35:03;;;;;;;5.38;1.45;;;;;;;;;;5014978;28;20050;-81
2023/08/15 00:37:33;;;;;;;2.70;1.50;;;;;;;;;;5004859;28;20066;-81
2023/08/15 00:40:00;;;;;;;5.18;1.70;;;;;;;;;;5003141;28;20060;-80
2023/08/15 00:42:28;;;;;;;2.75;1.40;;;;;;;;;;5019553;28;20100;-80
2023/08/15 00:44:57;;;;;;;2.72;1.60;;;;;;;;;;5001746;28;20105;-80
2023/08/15 00:47:23;;;;;;;2.00;1.40;;;;;;;;;;5013348;28;20421;-80
2023/08/15 00:49:51;;;;;;;2.88;1.58;;;;;;;;;;4991052;28;20058;-79
2023/08/15 00:52:18;;;;;;;4.13;1.50;;;;;;;;;;5017264;28;20050;-79
2023/08/15 00:54:49;;;;;;;1.83;1.42;;;;;;;;;;4984433;28;20100;-79
2023/08/15 00:57:16;;;;;;;4.18;1.83;;;;;;;;;;4988306;28;20852;-80
2023/08/15 00:59:43;;;;;;;3.53;1.55;;;;;;;;;;4988105;28;20050;-81
2023/08/15 01:02:10;;;;;;;7.82;2.00;;;;;;;;;;4990432;28;20069;-79
2023/08/15 01:04:38;;;;;;;4.05;1.75;;;;;;;;;;4987933;28;20047;-81
2023/08/15 01:07:05;;;;;;;5.10;2.10;;;;;;;;;;5008960;28;20046;-80
2023/08/15 01:09:31;;;;;;;3.08;1.67;;;;;;;;;;5023526;28;20064;-81
2023/08/15 01:12:04;;;;;;;2.60;1.73;;;;;;;;;;4995115;28;20078;-80
2023/08/15 01:14:35;;;;;;;6.13;1.90;;;;;;;;;;5002053;28;20112;-81
2023/08/15 01:17:04;;;;;;;2.58;1.80;;;;;;;;;;5017409;28;20046;-80
2023/08/15 01:19:38;;;;;;;3.70;2.00;;;;;;;;;;5020142;28;20105;-83
2023/08/15 01:22:15;;;;;;;4.68;1.90;;;;;;;;;;5018136;28;20061;-80
2023/08/15 01:24:42;;;;;;;4.25;2.05;;;;;;;;;;5020736;28;20109;-81
2023/08/15 01:27:10;;;;;;;3.05;1.90;;;;;;;;;;5004823;28;20072;-80
2023/08/15 01:29:37;;;;;;;3.05;1.77;;;;;;;;;;5020464;28;20467;-80
2023/08/15 01:32:16;;;;;;;5.63;2.17;;;;;;;;;;5005585;28;20393;-80
2023/08/15 01:34:46;;;;;;;4.07;1.90;;;;;;;;;;5015752;28;20111;-81
2023/08/15 01:37:18;;;;;;;3.35;2.17;;;;;;;;;;5017896;28;20115;-80
2023/08/15 01:39:47;;;;;;;4.28;2.28;;;;;;;;;;5006384;28;20560;-81
2023/08/15 01:42:14;;;;;;;3.53;2.13;;;;;;;;;;4993606;28;20045;-81
2023/08/15 01:44:41;;;;;;;5.60;2.15;;;;;;;;;;5003807;28;20045;-81
2023/08/15 01:47:08;;;;;;;3.90;2.42;;;;;;;;;;5015652;28;20136;-81
2023/08/15 01:49:34;;;;;;;2.67;1.90;;;;;;;;;;5021494;28;20057;-81
2023/08/15 01:52:04;;;;;;;4.90;2.10;;;;;;;;;;5020085;28;20445;-79
2023/08/15 01:54:30;;;;;;;5.93;2.53;;;;;;;;;;5005969;28;20129;-82
2023/08/15 01:56:57;;;;;;;3.35;2.40;;;;;;;;;;5002565;28;20438;-82
2023/08/15 01:59:24;;;;;;;3.67;2.25;;;;;;;;;;5016947;28;20366;-77
2023/08/15 02:01:50;;;;;;;4.85;2.33;;;;;;;;;;5018306;28;20125;-80
2023/08/15 02:04:17;;;;;;;3.50;2.30;;;;;;;;;;5022838;28;20275;-82
2023/08/15 02:06:43;;;;;;;3.97;2.28;;;;;;;;;;4998836;28;20045;-80
2023/08/15 02:09:10;;;;;;;3.55;2.30;;;;;;;;;;5025172;28;20386;-79
2023/08/15 02:11:37;;;;;;;4.63;2.70;;;;;;;;;;5009859;28;20051;-81
2023/08/15 02:14:03;;;;;;;7.90;2.38;;;;;;;;;;5021259;28;20488;-82
2023/08/15 02:16:30;;;;;;;2.85;2.00;;;;;;;;;;5007972;28;20049;-78
2023/08/15 02:18:57;;;;;;;4.03;2.38;;;;;;;;;;5020759;28;20049;-78
2023/08/15 02:21:23;;;;;;;3.22;2.25;;;;;;;;;;5021394;28;20053;-81
2023/08/15 02:23:50;;;;;;;7.88;2.42;;;;;;;;;;5010893;28;20574;-79
2023/08/15 02:26:17;;;;;;;4.05;2.28;;;;;;;;;;5003538;28;20057;-78
2023/08/15 02:28:44;;;;;;;5.15;2.47;;;;;;;;;;5006383;28;20042;-80
2023/08/15 02:31:10;;;;;;;4.60;2.00;;;;;;;;;;5021128;28;20046;-80
2023/08/15 02:33:37;;;;;;;4.07;2.63;;;;;;;;;;5024307;28;20042;-80
2023/08/15 02:36:07;;;;;;;4.57;2.53;;;;;;;;;;5011916;28;20111;-81
2023/08/15 02:38:36;;;;;;;4.43;2.70;;;;;;;;;;5020441;28;20053;-82
2023/08/15 02:41:05;;;;;;;3.90;2.70;;;;;;;;;;5019009;28;20073;-81
2023/08/15 02:43:31;;;;;;;6.45;3.05;;;;;;;;;;5019587;28;20053;-79
2023/08/15 02:45:58;;;;;;;5.40;2.90;;;;;;;;;;4975553;28;20131;-80
2023/08/15 02:48:25;;;;;;;6.28;2.55;;;;;;;;;;4998180;28;20042;-82
2023/08/15 02:50:52;;;;;;;5.05;2.72;;;;;;;;;;5002341;28;20038;-80
2023/08/15 02:53:19;;;;;;;5.70;2.90;;;;;;;;;;5004762;28;20054;-78
2023/08/15 02:55:50;;;;;;;3.63;2.80;;;;;;;;;;5007830;28;20423;-80
2023/08/15 02:58:17;;;;;;;3.92;2.58;;;;;;;;;;4996945;28;20046;-80
2023/08/15 03:00:45;;;;;;;4.40;2.97;;;;;;;;;;5002407;28;20138;-82
2023/08/15 03:03:13;;;;;;;6.07;3.08;;;;;;;;;;4992774;28;20038;-81
2023/08/15 03:05:40;;;;;;;4.88;3.15;;;;;;;;;;4999608;28;20046;-82
2023/08/15 03:08:07;;;;;;;4.97;2.75;;;;;;;;;;5003743;28;20054;-82
2023/08/15 03:10:38;;;;;;;4.57;3.08;;;;;;;;;;5005471;28;20057;-82
2023/08/15 03:13:05;;;;;;;4.13;2.88;;;;;;;;;;5000145;28;20046;-81
2023/08/15 03:15:32;;;;;;;4.30;3.08;;;;;;;;;;4983174;28;20073;-81
2023/08/15 03:17:58;;;;;;;5.63;2.75;;;;;;;;;;5007934;28;20134;-81
2023/08/15 03:20:25;;;;;;;4.75;3.05;;;;;;;;;;4998190;28;20092;-79
2023/08/15 03:22:53;;;;;;;5.63;2.97;;;;;;;;;;5010062;28;20127;-81
2023/08/15 03:25:19;;;;;;;6.05;3.38;;;;;;;;;;4995510;28;20046;-81
2023/08/15 03:27:46;;;;;;;4.70;2.88;;;;;;;;;;5003055;28;20046;-82
2023/08/15 03:30:13;;;;;;;3.45;2.60;;;;;;;;;;5006190;28;20269;-82
2023/08/15 03:32:40;;;;;;;6.88;3.40;;;;;;;;;;5006228;28;20038;-80
2023/08/15 03:35:07;;;;;;;3.78;2.90;;;;;;;;;;5010374;28;20072;-81
2023/08/15 03:37:35;;;;;;;3.88;2.60;;;;;;;;;;4995686;28;20418;-81
2023/08/15 03:40:03;;;;;;;7.93;3.65;;;;;;;;;;4999213;28;20152;-80
2023/08/15 03:42:32;;;;;;;4.07;2.55;;;;;;;;;;5004665;28;20062;-81
2023/08/15 03:44:59;;;;;;;5.05;2.75;;;;;;;;;;4972376;28;20050;-83
2023/08/15 03:47:25;;;;;;;6.97;2.83;;;;;;;;;;4997844;28;20042;-81
2023/08/15 03:49:52;;;;;;;5.07;3.25;;;;;;;;;;5005568;28;20058;-80
2023/08/15 03:52:19;;;;;;;4.50;2.80;;;;;;;;;;5004784;28;20099;-83
2023/08/15 03:54:46;;;;;;;7.90;2.90;;;;;;;;;;5000098;28;20061;-84
2023/08/15 03:57:13;;;;;;;6.47;2.80;;;;;;;;;;5010355;28;20049;-82
2023/08/15 03:59:39;;;;;;;4.78;2.70;;;;;;;;;;5009095;28;20102;-83
2023/08/15 04:02:06;;;;;;;3.50;2.78;;;;;;;;;;5014349;28;20204;-82
2023/08/15 04:04:33;;;;;;;4.40;2.90;;;;;;;;;;4996808;28;20038;-80
2023/08/15 04:07:00;;;;;;;4.93;2.83;;;;;;;;;;4995634;28;20054;-79
2023/08/15 04:09:27;;;;;;;7.05;3.75;;;;;;;;;;4968586;28;20050;-78
2023/08/15 04:11:54;;;;;;;6.32;3.60;;;;;;;;;;5011094;28;20660;-79
2023/08/15 04:14:20;;;;;;;5.53;3.88;;;;;;;;;;4994551;28;20063;-78
2023/08/15 04:16:47;;;;;;;7.07;4.25;;;;;;;;;;4985578;28;20038;-79
2023/08/15 04:19:15;;;;;;;9.55;4.13;;;;;;;;;;4980482;28;20098;-77
2023/08/15 04:21:41;;;;;;;7.35;3.85;;;;;;;;;;4979906;28;20114;-79
2023/08/15 04:24:08;;;;;;;6.32;3.63;;;;;;;;;;4970799;28;20045;-79
2023/08/15 04:26:35;;;;;;;7.60;4.10;;;;;;;;;;4983094;28;20141;-78
2023/08/15 04:29:01;;;;;;;6.45;4.32;;;;;;;;;;5001267;28;20401;-77
2023/08/15 04:31:30;;;;;;;8.07;4.53;;;;;;;;;;4997464;28;20049;-77
2023/08/15 04:33:57;;;;;;;7.32;4.15;;;;;;;;;;4994284;28;20520;-77
2023/08/15 04:36:24;;;;;;;6.32;4.32;;;;;;;;;;4997328;28;20042;-78
2023/08/15 04:38:51;;;;;;;9.18;3.83;;;;;;;;;;4987819;28;20518;-78
2023/08/15 04:41:17;;;;;;;6.90;4.50;;;;;;;;;;4996675;28;20547;-76
2023/08/15 04:43:44;;;;;;;9.27;5.15;;;;;;;;;;4977647;28;20049;-79
2023/08/15 04:46:11;;;;;;;8.48;5.93;;;;;;;;;;5004006;28;20069;-78
2023/08/15 04:48:38;;;;;;;8.73;5.88;;;;;;;;;;4997156;28;20042;-79
2023/08/15 04:51:07;;;;;;;7.28;5.63;;;;;;;;;;5003582;28;20188;-77
2023/08/15 04:53:34;;;;;;;9.23;6.22;;;;;;;;;;5003755;28;20119;-77
2023/08/15 04:56:01;;;;;;;9.88;6.68;;;;;;;;;;5000734;28;20050;-78
2023/08/15 04:58:28;;;;;;;14.10;7.30;;;;;;;;;;4996198;28;20053;-78
2023/08/15 05:00:54;;;;;;;10.88;6.53;;;;;;;;;;4990452;28;20051;-77
2023/08/15 05:03:21;;;;;;;11.07;6.75;;;;;;;;;;4985245;28;20062;-78
2023/08/15 05:05:48;;;;;;;11.50;6.78;;;;;;;;;;4985914;28;20413;-76
2023/08/15 05:08:15;;;;;;;9.23;6.65;;;;;;;;;;4993728;28;20200;-79
2023/08/15 05:10:41;;;;;;;11.10;7.05;;;;;;;;;;4986099;28;20065;-78
2023/08/15 05:13:08;;;;;;;14.52;6.95;;;;;;;;;;4986973;28;20044;-77
2023/08/15 05:15:35;;;;;;;17.63;8.88;;;;;;;;;;4991111;28;20078;-78
2023/08/15 05:18:02;;;;;;;15.30;7.40;;;;;;;;;;4995895;28;20390;-80
2023/08/15 05:20:29;;;;;;;13.63;7.85;;;;;;;;;;5007756;28;20448;-81
2023/08/15 05:22:59;;;;;;;13.07;8.10;;;;;;;;;;5000430;28;20096;-78
2023/08/15 05:25:33;;;;;;;13.38;7.40;;;;;;;;;;5005911;28;20540;-80
2023/08/15 05:28:06;;;;;;;13.25;7.85;;;;;;;;;;4984540;28;20045;-81
2023/08/15 05:30:33;;;;;;;10.35;8.27;;;;;;;;;;5005649;28;20050;-80
2023/08/15 05:33:00;;;;;;;10.82;8.07;;;;;;;;;;5003128;28;20049;-82
2023/08/15 05:35:27;;;;;;;17.67;8.63;;;;;;;;;;4999055;28;20158;-81
2023/08/15 05:37:54;;;;;;;11.57;8.25;;;;;;;;;;4992595;28;20074;-80
2023/08/15 05:40:21;;;;;;;12.27;8.60;;;;;;;;;;5007415;28;20057;-80
2023/08/15 05:42:50;;;;;;;13.73;7.97;;;;;;;;;;4999018;28;20085;-80
2023/08/15 05:45:17;;;;;;;13.68;8.85;;;;;;;;;;4994348;28;21543;-80
2023/08/15 05:47:44;;;;;;;11.80;7.97;;;;;;;;;;5004095;28;20054;-82
2023/08/15 05:50:10;;;;;;;13.38;8.05;;;;;;;;;;5010413;28;20521;-81
2023/08/15 05:52:37;;;;;;;12.20;7.65;;;;;;;;;;5015091;28;20049;-84
2023/08/15 05:55:04;;;;;;;12.35;8.45;;;;;;;;;;5005429;28;20124;-82
2023/08/15 05:57:30;;;;;;;9.25;7.13;;;;;;;;;;5001081;28;20034;-80
2023/08/15 05:59:57;;;;;;;9.75;6.43;;;;;;;;;;4998688;28;20114;-79
2023/08/15 06:02:25;;;;;;;12.68;7.60;;;;;;;;;;5012422;28;20517;-83
2023/08/15 06:04:51;;;;;;;13.80;8.07;;;;;;;;;;5007972;28;20047;-83
2023/08/15 06:07:18;;;;;;;13.32;7.22;;;;;;;;;;5015138;28;20069;-82
2023/08/15 06:09:45;;;;;;;9.15;6.60;;;;;;;;;;5003957;28;20054;-82
2023/08/15 06:12:12;;;;;;;13.32;7.53;;;;;;;;;;5011888;28;20304;-82
2023/08/15 06:14:40;;;;;;;10.48;6.40;;;;;;;;;;4998627;28;20071;-80
2023/08/15 06:17:07;;;;;;;11.57;7.13;;;;;;;;;;5000568;28;20783;-81
2023/08/15 06:19:34;;;;;;;10.35;6.93;;;;;;;;;;4998812;28;20056;-81
2023/08/15 06:22:00;;;;;;;13.38;6.93;;;;;;;;;;4999628;28;20054;-81
2023/08/15 06:24:27;;;;;;;8.15;6.15;;;;;;;;;;4994580;28;20077;-82
2023/08/15 06:26:53;;;;;;;14.60;7.40;;;;;;;;;;4989343;28;20039;-83
2023/08/15 06:29:20;;;;;;;9.77;6.65;;;;;;;;;;5000291;28;20046;-82
2023/08/15 06:31:47;;;;;;;11.52;7.07;;;;;;;;;;5006475;28;20060;-82
2023/08/15 06:34:13;;;;;;;11.20;7.22;;;;;;;;;;5007578;28;20050;-83
2023/08/15 06:36:43;;;;;;;10.60;6.80;;;;;;;;;;4998631;28;20502;-82
2023/08/15 06:39:11;;;;;;;10.90;6.18;;;;;;;;;;5000060;28;20050;-81
2023/08/15 06:41:38;;;;;;;11.50;6.03;;;;;;;;;;5005547;28;20062;-81
2023/08/15 06:44:05;;;;;;;10.15;6.00;;;;;;;;;;4991828;28;20050;-79
2023/08/15 06:46:31;;;;;;;7.63;5.57;;;;;;;;;;4996324;28;20049;-79
2023/08/15 06:48:58;;;;;;;10.52;5.68;;;;;;;;;;4991811;28;20031;-82
2023/08/15 06:51:25;;;;;;;6.50;5.07;;;;;;;;;;4991940;28;20090;-78
2023/08/15 06:53:52;;;;;;;9.68;5.72;;;;;;;;;;4992416;28;20046;-80
2023/08/15 06:56:19;;;;;;;9.98;6.18;;;;;;;;;;4993950;28;20100;-79
2023/08/15 06:58:46;;;;;;;8.02;5.28;;;;;;;;;;4997827;28;20048;-79
2023/08/15 07:01:13;;;;;;;8.13;5.32;;;;;;;;;;4988804;28;20034;-81
2023/08/15 07:03:40;;;;;;;8.55;5.57;;;;;;;;;;5018926;28;20038;-82
2023/08/15 07:06:07;;;;;;;6.80;5.05;;;;;;;;;;5002116;28;20065;-83
2023/08/15 07:08:33;;;;;;;6.65;4.72;;;;;;;;;;5010860;28;20041;-82
2023/08/15 07:11:00;;;;;;;7.50;5.10;;;;;;;;;;4999985;28;20053;-80
2023/08/15 07:13:29;;;;;;;6.90;4.45;;;;;;;;;;5009111;28;20042;-80
2023/08/15 07:15:56;;;;;;;7.45;4.57;;;;;;;;;;5019373;28;20065;-82
2023/08/15 07:18:23;;;;;;;10.40;5.30;;;;;;;;;;5017907;28;20104;-80
2023/08/15 07:20:51;;;;;;;9.65;5.00;;;;;;;;;;4990076;28;20525;-80
2023/08/15 07:23:18;;;;;;;9.20;4.78;;;;;;;;;;4997968;28;20045;-84
2023/08/15 07:25:44;;;;;;;7.32;4.80;;;;;;;;;;5004916;28;20401;-81
2023/08/15 07:28:12;;;;;;;7.57;4.90;;;;;;;;;;5000253;28;20073;-82
2023/08/15 07:30:38;;;;;;;8.10;4.60;;;;;;;;;;5006294;28;20049;-79
2023/08/15 07:33:05;;;;;;;7.78;4.68;;;;;;;;;;4995353;28;20398;-81
2023/08/15 07:35:32;;;;;;;7.53;4.88;;;;;;;;;;4998084;28;20329;-81
2023/08/15 07:37:59;;;;;;;11.05;5.10;;;;;;;;;;4996594;28;20064;-78
2023/08/15 07:40:27;;;;;;;7.72;4.90;;;;;;;;;;5005798;28;20050;-81
2023/08/15 07:42:54;;;;;;;8.23;4.93;;;;;;;;;;5008715;28;20049;-80
2023/08/15 07:45:21;;;;;;;6.32;4.40;;;;;;;;;;4992212;28;20050;-81
2023/08/15 07:47:51;;;;;;;6.80;4.47;;;;;;;;;;5001228;28;20052;-80
2023/08/15 07:50:21;;;;;;;7.55;4.30;;;;;;;;;;4991852;28;20054;-80
2023/08/15 07:52:48;;;;;;;6.80;4.43;;;;;;;;;;4998670;28;20046;-81
2023/08/15 07:55:15;;;;;;;5.65;4.50;;;;;;;;;;4997273;28;20038;-81
2023/08/15 07:57:46;;;;;;;6.30;3.97;;;;;;;;;;4993314;28;20038;-82
2023/08/15 08:00:13;;;;;;;7.82;4.75;;;;;;;;;;4996951;28;20314;-81
2023/08/15 08:02:44;;;;;;;7.60;4.32;;;;;;;;;;4998803;28;20080;-81
2023/08/15 08:05:11;;;;;;;6.82;4.30;;;;;;;;;;5006813;28;20068;-81
2023/08/15 08:07:40;;;;;;;6.38;4.47;;;;;;;;;;5008118;28;20180;-78
2023/08/15 08:10:07;;;;;;;10.30;4.47;;;;;;;;;;4980717;28;20057;-78
2023/08/15 08:12:34;;;;;;;8.55;4.20;;;;;;;;;;4990294;28;20038;-80
2023/08/15 08:15:01;;;;;;;9.30;4.32;;;;;;;;;;4997684;28;20073;-80
2023/08/15 08:17:28;;;;;;;5.93;4.40;;;;;;;;;;4999030;28;20046;-80
2023/08/15 08:19:55;;;;;;;8.68;4.03;;;;;;;;;;4995821;28;20038;-80
2023/08/15 08:22:22;;;;;;;7.07;3.72;;;;;;;;;;4998123;28;20046;-80
2023/08/15 08:24:50;;;;;;;5.30;3.72;;;;;;;;;;4988064;28;20042;-80
2023/08/15 08:27:17;;;;;;;7.68;4.20;;;;;;;;;;4991455;28;20034;-78
2023/08/15 08:29:43;;;;;;;5.85;4.35;;;;;;;;;;5001919;28;20042;-80
2023/08/15 08:32:10;;;;;;;6.22;3.92;;;;;;;;;;5001778;28;20046;-79
2023/08/15 08:34:37;;;;;;;5.05;3.92;;;;;;;;;;5003748;28;20046;-78
2023/08/15 08:37:05;;;;;;;8.13;4.00;;;;;;;;;;4981743;28;20053;-81
2023/08/15 08:39:31;;;;;;;4.57;3.05;;;;;;;;;;4998250;28;20482;-83
2023/08/15 08:41:59;;;;;;;5.38;3.10;;;;;;;;;;4999736;28;20038;-82
2023/08/15 08:44:26;;;;;;;4.75;2.70;;;;;;;;;;5001053;28;20054;-79
2023/08/15 08:46:53;;;;;;;5.07;2.92;;;;;;;;;;4988969;28;20421;-79
2023/08/15 08:49:20;;;;;;;7.68;2.78;;;;;;;;;;5001762;28;20169;-79
2023/08/15 08:51:48;;;;;;;5.53;2.70;;;;;;;;;;4995782;28;20061;-82
2023/08/15 08:54:15;;;;;;;4.57;3.40;;;;;;;;;;4998402;28;20042;-81
2023/08/15 08:56:46;;;;;;;4.38;3.25;;;;;;;;;;5005156;28;20042;-81
2023/08/15 08:59:12;;;;;;;7.82;3.35;;;;;;;;;;4998549;28;20053;-81
2023/08/15 09:01:39;;;;;;;3.65;2.75;;;;;;;;;;5003313;28;20037;-83
2023/08/15 09:04:06;;;;;;;4.38;2.95;;;;;;;;;;4995601;28;20057;-80
2023/08/15 09:06:33;;;;;;;6.97;2.63;;;;;;;;;;4988653;28;20066;-81
2023/08/15 09:09:00;;;;;;;4.15;2.42;;;;;;;;;;4997030;28;20360;-79
2023/08/15 09:11:34;;;;;;;4.38;2.90;;;;;;;;;;4994690;28;20061;-80
2023/08/15 09:14:04;;;;;;;8.45;2.80;;;;;;;;;;4985595;28;20049;-81
2023/08/15 09:16:31;;;;;;;4.97;2.85;;;;;;;;;;4997815;28;20046;-80
2023/08/15 09:19:02;;;;;;;7.60;3.08;;;;;;;;;;5009033;28;20042;-80
2023/08/15 09:21:29;;;;;;;4.03;2.75;;;;;;;;;;4996169;28;20046;-83
2023/08/15 09:23:57;;;;;;;4.88;2.55;;;;;;;;;;4996551;28;20045;-81
2023/08/15 09:26:23;;;;;;;4.70;2.53;;;;;;;;;;5002524;28;20072;-81
2023/08/15 09:28:50;;;;;;;6.18;2.70;;;;;;;;;;5008544;28;20445;-82
2023/08/15 09:31:18;;;;;;;3.85;2.72;;;;;;;;;;5000675;28;20046;-81
2023/08/15 09:33:45;;;;;;;3.60;2.22;;;;;;;;;;4994256;28;20688;-80
2023/08/15 09:36:13;;;;;;;6.30;2.40;;;;;;;;;;4986181;28;21990;-79
2023/08/15 09:38:43;;;;;;;5.22;2.50;;;;;;;;;;4984422;28;21421;-81
2023/08/15 09:41:11;;;;;;;3.70;2.45;;;;;;;;;;4997144;28;20085;-78
2023/08/15 09:43:51;;;;;;;5.60;2.38;;;;;;;;;;5003296;28;20046;-78
2023/08/15 09:46:18;;;;;;;6.53;2.50;;;;;;;;;;4993502;28;20080;-78
2023/08/15 09:48:47;;;;;;;6.68;2.42;;;;;;;;;;4993574;28;20049;-82
2023/08/15 09:51:15;;;;;;;3.90;2.17;;;;;;;;;;4997227;28;20049;-78
2023/08/15 09:53:43;;;;;;;4.95;2.53;;;;;;;;;;5000305;28;20046;-78
2023/08/15 09:56:12;;;;;;;5.93;2.40;;;;;;;;;;4999563;28;20054;-78
2023/08/15 09:58:39;;;;;;;5.82;2.92;;;;;;;;;;4985404;28;20585;-79
2023/08/15 10:01:08;;;;;;;7.15;3.05;;;;;;;;;;4986264;28;20153;-78
2023/08/15 10:03:38;;;;;;;4.50;3.33;;;;;;;;;;4994169;28;20043;-78
2023/08/15 10:06:07;;;;;;;7.22;3.20;;;;;;;;;;5004608;28;20238;-78
2023/08/15 10:08:39;;;;;;;4.13;2.70;;;;;;;;;;5006197;28;20043;-78
2023/08/15 10:11:08;;;;;;;5.28;2.97;;;;;;;;;;4992572;28;21037;-79
2023/08/15 10:13:36;;;;;;;4.55;3.10;;;;;;;;;;5007462;28;20049;-78
2023/08/15 10:16:04;;;;;;;4.43;3.05;;;;;;;;;;5003424;28;20054;-78
2023/08/15 10:18:31;;;;;;;4.53;3.25;;;;;;;;;;4999156;28;20030;-79
2023/08/15 10:20:58;;;;;;;5.18;3.10;;;;;;;;;;4999831;28;20604;-83
2023/08/15 10:23:28;;;;;;;5.38;3.28;;;;;;;;;;5009819;28;20506;-78
2023/08/15 10:25:56;;;;;;;4.68;3.22;;;;;;;;;;4998592;28;20096;-78
2023/08/15 10:28:22;;;;;;;4.72;3.47;;;;;;;;;;5006668;28;20117;-79
2023/08/15 10:30:50;;;;;;;4.55;3.40;;;;;;;;;;4996356;28;20096;-80
2023/08/15 10:33:19;;;;;;;5.68;3.45;;;;;;;;;;4992320;28;20450;-79
2023/08/15 10:35:55;;;;;;;5.03;3.83;;;;;;;;;;5013119;28;20064;-81
2023/08/15 10:38:21;;;;;;;5.28;3.92;;;;;;;;;;4997296;28;20345;-79
2023/08/15 10:40:50;;;;;;;7.10;3.60;;;;;;;;;;4999395;28;20046;-80
2023/08/15 10:43:17;;;;;;;4.90;3.53;;;;;;;;;;4992586;28;20409;-80
2023/08/15 10:45:45;;;;;;;6.00;3.53;;;;;;;;;;4998417;28;20498;-80
2023/08/15 10:48:13;;;;;;;9.38;3.65;;;;;;;;;;4996623;28;20034;-81
2023/08/15 10:50:45;;;;;;;6.53;3.30;;;;;;;;;;5006246;28;20045;-80
2023/08/15 10:53:11;;;;;;;5.55;4.00;;;;;;;;;;4997284;28;20042;-80
2023/08/15 10:55:42;;;;;;;6.60;3.83;;;;;;;;;;5000357;28;20065;-80
2023/08/15 10:58:10;;;;;;;6.25;3.97;;;;;;;;;;4986248;28;20048;-81
2023/08/15 11:00:37;;;;;;;5.80;3.53;;;;;;;;;;4987349;28;20055;-81
2023/08/15 11:03:03;;;;;;;5.63;4.10;;;;;;;;;;4998833;28;20050;-78
2023/08/15 11:05:31;;;;;;;9.75;3.80;;;;;;;;;;4999587;28;20073;-80
2023/08/15 11:08:09;;;;;;;5.78;3.72;;;;;;;;;;5002741;28;20066;-80
2023/08/15 11:10:41;;;;;;;6.45;3.92;;;;;;;;;;5004265;28;20317;-81
2023/08/15 11:13:08;;;;;;;7.85;4.15;;;;;;;;;;5011901;28;20088;-80
2023/08/15 11:15:34;;;;;;;5.88;3.53;;;;;;;;;;4998572;28;20478;-79
2023/08/15 11:18:01;;;;;;;6.55;3.83;;;;;;;;;;5005331;28;20041;-81
2023/08/15 11:20:29;;;;;;;6.55;3.90;;;;;;;;;;4994328;28;20093;-79
2023/08/15 11:22:56;;;;;;;6.95;3.90;;;;;;;;;;5009307;28;20233;-80
2023/08/15 11:25:24;;;;;;;6.03;3.75;;;;;;;;;;4996197;28;20337;-81
2023/08/15 11:27:50;;;;;;;9.52;3.58;;;;;;;;;;5010331;28;20059;-79
2023/08/15 11:30:17;;;;;;;7.90;3.60;;;;;;;;;;5007072;28;20049;-80
2023/08/15 11:32:44;;;;;;;5.35;3.88;;;;;;;;;;5003316;28;20046;-80
2023/08/15 11:35:11;;;;;;;6.20;3.92;;;;;;;;;;4996140;28;20053;-80
2023/08/15 11:37:40;;;;;;;8.45;3.53;;;;;;;;;;4997464;28;20082;-78
2023/08/15 11:40:07;;;;;;;5.97;3.78;;;;;;;;;;4999090;28;20046;-80
2023/08/15 11:42:33;;;;;;;7.32;3.70;;;;;;;;;;4998168;28;20069;-80
2023/08/15 11:45:20;;;;;;;6.97;3.65;;;;;;;;;;5002342;28;20057;-80
2023/08/15 11:47:51;;;;;;;8.73;3.58;;;;;;;;;;4992355;28;20046;-80
2023/08/15 11:50:18;;;;;;;10.82;4.00;;;;;;;;;;4997022;28;20055;-80
2023/08/15 11:52:55;;;;;;;6.40;3.80;;;;;;;;;;4997900;28;20077;-80
2023/08/15 11:55:22;;;;;;;7.95;3.20;;;;;;;;;;5001184;28;20101;-79
2023/08/15 11:57:50;;;;;;;5.28;3.00;;;;;;;;;;5007205;28;20056;-79
2023/08/15 12:00:18;;;;;;;10.57;3.40;;;;;;;;;;5008609;28;20500;-78
2023/08/15 12:02:46;;;;;;;9.90;3.42;;;;;;;;;;5012921;28;20464;-78
2023/08/15 12:05:13;;;;;;;6.72;3.17;;;;;;;;;;5005567;28;20396;-79
2023/08/15 12:07:43;;;;;;;5.80;3.67;;;;;;;;;;5006553;28;20046;-81
2023/08/15 12:10:14;;;;;;;6.03;3.40;;;;;;;;;;5005892;28;20065;-81
2023/08/15 12:12:45;;;;;;;6.53;3.47;;;;;;;;;;5005871;28;20050;-80
2023/08/15 12:15:13;;;;;;;6.97;4.25;;;;;;;;;;5006348;28;20049;-82
2023/08/15 12:17:46;;;;;;;4.45;3.00;;;;;;;;;;5003089;28;20062;-81
2023/08/15 12:20:14;;;;;;;4.15;3.13;;;;;;;;;;5009775;28;20053;-83
2023/08/15 12:22:41;;;;;;;6.05;3.63;;;;;;;;;;5006506;28;20050;-80
2023/08/15 12:25:08;;;;;;;4.95;3.35;;;;;;;;;;5005686;28;20037;-80
2023/08/15 12:27:38;;;;;;;6.90;3.20;;;;;;;;;;4997196;28;20040;-79
2023/08/15 12:30:05;;;;;;;6.68;3.60;;;;;;;;;;4986017;28;20532;-80
2023/08/15 12:32:41;;;;;;;4.85;3.20;;;;;;;;;;5008994;28;20043;-82
2023/08/15 12:35:08;;;;;;;4.22;3.20;;;;;;;;;;5005979;28;20057;-82
2023/08/15 12:37:35;;;;;;;4.25;3.08;;;;;;;;;;5009290;28;20045;-79
2023/08/15 12:40:01;;;;;;;8.88;3.08;;;;;;;;;;4991908;28;20596;-81
2023/08/15 12:42:28;;;;;;;6.35;3.00;;;;;;;;;;4997263;28;20054;-82
2023/08/15 12:44:55;;;;;;;11.48;3.22;;;;;;;;;;4978704;28;20585;-80
2023/08/15 12:47:22;;;;;;;4.85;2.97;;;;;;;;;;4991682;28;20054;-83
2023/08/15 12:49:48;;;;;;;7.55;3.10;;;;;;;;;;5002956;28;20042;-82
2023/08/15 12:52:15;;;;;;;5.85;3.03;;;;;;;;;;5006913;28;20046;-80
2023/08/15 12:54:44;;;;;;;6.22;3.40;;;;;;;;;;5003823;28;20034;-80
2023/08/15 12:57:11;;;;;;;9.77;3.40;;;;;;;;;;5001941;28;20045;-81
2023/08/15 12:59:38;;;;;;;5.22;2.85;;;;;;;;;;5000500;28;20064;-83
2023/08/15 13:02:05;;;;;;;3.67;2.58;;;;;;;;;;5010100;28;20062;-79
2023/08/15 13:04:31;;;;;;;6.07;3.00;;;;;;;;;;4997618;28;20042;-79
2023/08/15 13:06:59;;;;;;;4.85;3.00;;;;;;;;;;5005156;28;20050;-81
2023/08/15 13:09:25;;;;;;;5.38;2.83;;;;;;;;;;5021140;28;20113;-82
2023/08/15 13:11:52;;;;;;;6.05;2.95;;;;;;;;;;4997662;28;20449;-79
2023/08/15 13:14:19;;;;;;;14.18;2.75;;;;;;;;;;4998920;28;20053;-79
2023/08/15 13:17:00;;;;;;;9.60;2.53;;;;;;;;;;5000018;28;20050;-81
2023/08/15 13:19:27;;;;;;;5.93;2.42;;;;;;;;;;4999616;28;20042;-80
2023/08/15 13:21:55;;;;;;;3.72;2.70;;;;;;;;;;5007109;28;20118;-80
2023/08/15 13:24:25;;;;;;;10.88;2.90;;;;;;;;;;5007065;28;20533;-81
2023/08/15 13:26:52;;;;;;;6.13;2.60;;;;;;;;;;5012626;28;20046;-82
2023/08/15 13:29:19;;;;;;;5.10;2.40;;;;;;;;;;5015926;28;20038;-79
2023/08/15 13:31:46;;;;;;;5.05;2.35;;;;;;;;;;5007173;28;20042;-80
2023/08/15 13:34:12;;;;;;;4.93;2.05;;;;;;;;;;5006088;28;20041;-80
2023/08/15 13:36:39;;;;;;;3.72;2.55;;;;;;;;;;5017325;28;20042;-81
2023/08/15 13:39:07;;;;;;;4.00;2.65;;;;;;;;;;5008917;28;20042;-80
2023/08/15 13:41:33;;;;;;;6.65;3.08;;;;;;;;;;5001750;28;20077;-78
2023/08/15 13:44:00;;;;;;;3.97;2.42;;;;;;;;;;5001411;28;20053;-81
2023/08/15 13:46:28;;;;;;;4.72;2.60;;;;;;;;;;5005086;28;20053;-81
2023/08/15 13:48:55;;;;;;;3.83;2.58;;;;;;;;;;5004354;28;20070;-77
2023/08/15 13:51:21;;;;;;;3.90;2.53;;;;;;;;;;5008397;28;20053;-78
2023/08/15 13:53:49;;;;;;;4.68;2.47;;;;;;;;;;5008964;28;20058;-78
2023/08/15 13:56:17;;;;;;;4.63;2.58;;;;;;;;;;4997321;28;20054;-80
2023/08/15 13:58:47;;;;;;;5.35;2.83;;;;;;;;;;5004942;28;20058;-82
2023/08/15 14:01:14;;;;;;;6.00;2.70;;;;;;;;;;5008545;28;20057;-78
2023/08/15 14:03:40;;;;;;;5.22;2.60;;;;;;;;;;5016532;28;20145;-81
2023/08/15 14:06:07;;;;;;;4.28;2.70;;;;;;;;;;5012193;28;20065;-80
2023/08/15 14:08:34;;;;;;;6.13;2.60;;;;;;;;;;5022006;28;20502;-80
2023/08/15 14:11:02;;;;;;;4.10;2.58;;;;;;;;;;5013720;28;20172;-81
2023/08/15 14:13:29;;;;;;;6.53;2.58;;;;;;;;;;5027075;28;20045;-80
2023/08/15 14:15:56;;;;;;;5.60;2.70;;;;;;;;;;5012776;28;20100;-78
2023/08/15 14:18:22;;;;;;;4.88;2.50;;;;;;;;;;5016004;28;20045;-80
2023/08/15 14:20:49;;;;;;;3.97;2.35;;;;;;;;;;5010444;28;20668;-81
2023/08/15 14:23:15;;;;;;;4.95;2.72;;;;;;;;;;4994437;28;20038;-81
2023/08/15 14:25:42;;;;;;;6.15;2.20;;;;;;;;;;5023389;28;20088;-80
2023/08/15 14:28:09;;;;;;;4.22;2.75;;;;;;;;;;5009839;28;20046;-79
2023/08/15 14:30:36;;;;;;;5.05;3.38;;;;;;;;;;5011628;28;20045;-82
2023/08/15 14:33:03;;;;;;;10.77;5.10;;;;;;;;;;5000602;28;20228;-79
2023/08/15 14:35:31;;;;;;;5.32;3.83;;;;;;;;;;4999877;28;20054;-81
2023/08/15 14:37:58;;;;;;;5.90;3.42;;;;;;;;;;5000611;28;20041;-78
2023/08/15 14:40:25;;;;;;;6.95;3.25;;;;;;;;;;4998556;28;20153;-81
2023/08/15 14:42:52;;;;;;;4.95;3.03;;;;;;;;;;5007997;28;20045;-84